createdAt,value
2017-04-20T00:00:24.932Z,1019.33
2017-04-20T00:00:46.724Z,1019.26
2017-04-20T00:01:13.215Z,1019.41
2017-04-20T00:01:34.921Z,1019.30
2017-04-20T00:01:56.730Z,1019.25
2017-04-20T00:02:49.701Z,1019.13
2017-04-20T00:03:56.998Z,1019.46
2017-04-20T00:04:18.731Z,1019.31
2017-04-20T00:05:25.826Z,1019.11
2017-04-20T00:05:47.543Z,1019.28
2017-04-20T00:06:54.828Z,1019.34
2017-04-20T00:07:16.575Z,1019.15
2017-04-20T00:07:47.852Z,1019.22
2017-04-20T00:08:09.629Z,1019.21
2017-04-20T00:08:36.122Z,1019.43
2017-04-20T00:08:57.866Z,1019.36
2017-04-20T00:09:19.642Z,1019.41
2017-04-20T00:09:46.156Z,1019.26
2017-04-20T00:10:07.851Z,1019.23
2017-04-20T00:10:34.452Z,1019.26
2017-04-20T00:10:56.137Z,1019.32
2017-04-20T00:11:17.901Z,1019.21
2017-04-20T00:12:25.193Z,1019.12
2017-04-20T00:12:46.894Z,1019.24
2017-04-20T00:13:08.585Z,1019.31
2017-04-20T00:13:30.429Z,1019.47
2017-04-20T00:13:52.139Z,1019.35
2017-04-20T00:14:13.845Z,1019.30
2017-04-20T00:14:35.545Z,1019.28
2017-04-20T00:14:57.333Z,1019.37
2017-04-20T00:15:50.324Z,1019.22
2017-04-20T00:16:12.106Z,1019.42
2017-04-20T00:16:33.846Z,1019.32
2017-04-20T00:16:55.600Z,1019.31
2017-04-20T00:17:22.128Z,1019.30
2017-04-20T00:17:43.967Z,1019.33
2017-04-20T00:18:37.019Z,1019.59
2017-04-20T00:19:29.980Z,1019.35
2017-04-20T00:20:22.993Z,1019.26
2017-04-20T00:21:16.073Z,1019.35
2017-04-20T00:22:09.230Z,1019.31
2017-04-20T00:22:35.722Z,1019.34
2017-04-20T00:22:57.508Z,1019.36
2017-04-20T00:23:24.008Z,1019.44
2017-04-20T00:23:45.902Z,1019.43
2017-04-20T00:24:07.728Z,1019.46
2017-04-20T00:25:06.313Z,1019.41
2017-04-20T00:25:28.035Z,1019.39
2017-04-20T00:25:49.766Z,1019.44
2017-04-20T00:26:16.376Z,1019.25
2017-04-20T00:26:38.014Z,1019.18
2017-04-20T00:26:59.724Z,1019.25
2017-04-20T00:27:26.215Z,1019.49
2017-04-20T00:27:47.989Z,1019.31
2017-04-20T00:28:09.697Z,1019.38
2017-04-20T00:29:12.205Z,1019.45
2017-04-20T00:29:33.908Z,1019.42
2017-04-20T00:30:00.436Z,1019.20
2017-04-20T00:30:22.199Z,1019.29
2017-04-20T00:30:43.906Z,1019.32
2017-04-20T00:31:10.395Z,1019.51
2017-04-20T00:31:32.150Z,1019.58
2017-04-20T00:31:53.850Z,1019.30
2017-04-20T00:32:20.323Z,1019.17
2017-04-20T00:32:42.029Z,1019.40
2017-04-20T00:33:08.635Z,1019.38
2017-04-20T00:33:30.326Z,1019.34
2017-04-20T00:33:52.054Z,1019.30
2017-04-20T00:34:50.554Z,1019.35
2017-04-20T00:35:12.262Z,1019.44
2017-04-20T00:36:10.747Z,1019.27
2017-04-20T00:36:32.476Z,1019.31
2017-04-20T00:36:54.179Z,1019.38
2017-04-20T00:37:20.787Z,1019.30
2017-04-20T00:37:42.441Z,1019.32
2017-04-20T00:38:08.941Z,1019.38
2017-04-20T00:38:30.630Z,1019.28
2017-04-20T00:38:59.878Z,1019.21
2017-04-20T00:39:21.506Z,1019.34
2017-04-20T00:39:47.990Z,1019.14
2017-04-20T00:40:09.700Z,1019.33
2017-04-20T00:40:36.331Z,1019.34
2017-04-20T00:40:58.004Z,1019.35
2017-04-20T00:41:24.510Z,1019.25
2017-04-20T00:41:46.196Z,1019.47
2017-04-20T00:42:12.806Z,1019.42
2017-04-20T00:42:34.516Z,1019.48
2017-04-20T00:43:01.052Z,1019.31
2017-04-20T00:43:22.849Z,1019.31
2017-04-20T00:43:44.572Z,1019.42
2017-04-20T00:44:06.299Z,1019.39
2017-04-20T00:44:59.317Z,1019.19
2017-04-20T00:46:26.855Z,1019.43
2017-04-20T00:46:48.587Z,1019.45
2017-04-20T00:47:10.287Z,1019.26
2017-04-20T00:48:17.593Z,1019.31
2017-04-20T00:48:39.369Z,1019.23
2017-04-20T00:49:05.995Z,1019.20
2017-04-20T00:49:27.663Z,1019.12
2017-04-20T00:51:27.936Z,1019.40
2017-04-20T00:51:49.737Z,1019.37
2017-04-20T00:52:16.220Z,1019.26
2017-04-20T00:52:37.979Z,1019.34
2017-04-20T00:53:45.288Z,1019.23
2017-04-20T00:55:04.738Z,1019.36
2017-04-20T00:55:58.817Z,1019.19
2017-04-20T00:56:51.775Z,1019.13
2017-04-20T00:57:13.486Z,1019.04
2017-04-20T00:57:35.226Z,1019.23
2017-04-20T00:57:56.949Z,1019.46
2017-04-20T00:58:18.659Z,1019.25
2017-04-20T00:59:11.769Z,1019.20
2017-04-20T00:59:33.460Z,1019.16
2017-04-20T00:59:55.151Z,1019.25
2017-04-20T01:00:16.844Z,1019.30
2017-04-20T01:00:38.559Z,1019.27
2017-04-20T01:01:00.268Z,1019.27
2017-04-20T01:01:53.230Z,1019.03
2017-04-20T01:02:14.938Z,1019.13
2017-04-20T01:02:45.537Z,1019.10
2017-04-20T01:03:43.238Z,1019.17
2017-04-20T01:04:04.929Z,1019.13
2017-04-20T01:05:07.424Z,1019.14
2017-04-20T01:05:29.137Z,1019.34
2017-04-20T01:06:27.569Z,1019.39
2017-04-20T01:06:49.257Z,1019.30
2017-04-20T01:07:10.971Z,1019.19
2017-04-20T01:07:37.461Z,1018.94
2017-04-20T01:07:59.523Z,1019.16
2017-04-20T01:08:21.208Z,1019.32
2017-04-20T01:08:47.680Z,1019.03
2017-04-20T01:09:09.368Z,1019.10
2017-04-20T01:09:31.070Z,1019.26
2017-04-20T01:09:52.782Z,1019.11
2017-04-20T01:10:14.478Z,1019.16
2017-04-20T01:11:15.727Z,1019.21
2017-04-20T01:11:37.425Z,1019.26
2017-04-20T01:11:59.123Z,1019.07
2017-04-20T01:12:20.833Z,1019.11
2017-04-20T01:12:42.533Z,1019.04
2017-04-20T01:13:04.264Z,1019.07
2017-04-20T01:13:25.970Z,1019.07
2017-04-20T01:13:52.437Z,1018.90
2017-04-20T01:14:14.156Z,1019.08
2017-04-20T01:14:35.863Z,1019.17
2017-04-20T01:14:57.563Z,1019.08
2017-04-20T01:15:24.034Z,1018.91
2017-04-20T01:15:45.747Z,1019.12
2017-04-20T01:16:07.434Z,1019.17
2017-04-20T01:16:29.142Z,1019.14
2017-04-20T01:16:50.839Z,1018.90
2017-04-20T01:17:12.536Z,1018.98
2017-04-20T01:17:34.237Z,1018.97
2017-04-20T01:17:55.931Z,1019.15
2017-04-20T01:18:17.698Z,1019.07
2017-04-20T01:19:20.201Z,1019.25
2017-04-20T01:19:46.676Z,1018.95
2017-04-20T01:20:08.386Z,1019.05
2017-04-20T01:20:34.872Z,1019.04
2017-04-20T01:20:56.567Z,1019.10
2017-04-20T01:21:23.043Z,1019.33
2017-04-20T01:21:44.744Z,1019.16
2017-04-20T01:22:06.445Z,1018.96
2017-04-20T01:23:04.723Z,1018.92
2017-04-20T01:23:26.450Z,1018.90
2017-04-20T01:24:28.941Z,1019.23
2017-04-20T01:24:50.649Z,1019.01
2017-04-20T01:25:12.350Z,1018.91
2017-04-20T01:25:34.064Z,1018.97
2017-04-20T01:25:55.761Z,1019.02
2017-04-20T01:26:58.266Z,1019.21
2017-04-20T01:27:22.564Z,1019.13
2017-04-20T01:28:15.527Z,1019.00
2017-04-20T01:29:08.647Z,1018.87
2017-04-20T01:29:35.129Z,1019.00
2017-04-20T01:29:56.830Z,1019.06
2017-04-20T01:30:18.540Z,1019.15
2017-04-20T01:30:40.249Z,1019.02
2017-04-20T01:31:01.951Z,1019.06
2017-04-20T01:31:23.653Z,1019.13
2017-04-20T01:31:45.363Z,1019.13
2017-04-20T01:32:07.049Z,1018.93
2017-04-20T01:32:28.959Z,1018.94
2017-04-20T01:32:50.690Z,1019.26
2017-04-20T01:33:59.871Z,1018.98
2017-04-20T01:34:21.573Z,1018.97
2017-04-20T01:34:43.296Z,1019.10
2017-04-20T01:35:09.801Z,1019.27
2017-04-20T01:35:32.502Z,1019.17
2017-04-20T01:36:35.004Z,1018.97
2017-04-20T01:36:56.701Z,1019.04
2017-04-20T01:37:55.028Z,1019.05
2017-04-20T01:38:16.743Z,1019.18
2017-04-20T01:39:09.714Z,1019.07
2017-04-20T01:40:02.882Z,1018.98
2017-04-20T01:40:29.351Z,1019.10
2017-04-20T01:40:51.048Z,1019.02
2017-04-20T01:41:12.742Z,1019.05
2017-04-20T01:42:11.055Z,1018.96
2017-04-20T01:43:09.285Z,1018.96
2017-04-20T01:44:16.611Z,1019.16
2017-04-20T01:44:38.416Z,1019.08
2017-04-20T01:45:00.105Z,1019.08
2017-04-20T01:45:21.811Z,1019.09
2017-04-20T01:45:43.513Z,1019.02
2017-04-20T01:46:05.259Z,1019.14
2017-04-20T01:46:31.774Z,1019.28
2017-04-20T01:46:53.633Z,1018.93
2017-04-20T01:47:51.987Z,1019.26
2017-04-20T01:48:50.217Z,1019.14
2017-04-20T01:49:48.510Z,1019.10
2017-04-20T01:50:41.474Z,1019.11
2017-04-20T01:51:07.962Z,1019.06
2017-04-20T01:51:29.655Z,1018.96
2017-04-20T01:51:51.365Z,1018.94
2017-04-20T01:52:17.894Z,1018.91
2017-04-20T01:53:16.236Z,1018.94
2017-04-20T01:54:09.217Z,1019.04
2017-04-20T01:55:02.189Z,1018.97
2017-04-20T01:55:23.948Z,1019.17
2017-04-20T01:55:50.461Z,1019.28
2017-04-20T01:56:12.255Z,1018.97
2017-04-20T01:57:14.888Z,1019.12
2017-04-20T01:57:36.583Z,1019.04
2017-04-20T01:57:58.343Z,1019.14
2017-04-20T01:58:20.066Z,1019.04
2017-04-20T01:58:41.773Z,1019.27
2017-04-20T01:59:03.477Z,1019.30
2017-04-20T01:59:25.195Z,1019.09
2017-04-20T01:59:51.705Z,1019.04
2017-04-20T02:00:13.446Z,1019.22
2017-04-20T02:00:39.937Z,1019.07
2017-04-20T02:01:01.669Z,1019.19
2017-04-20T02:01:28.173Z,1019.23
2017-04-20T02:01:49.909Z,1019.10
2017-04-20T02:02:16.405Z,1019.01
2017-04-20T02:02:42.901Z,1018.85
2017-04-20T02:03:09.382Z,1019.04
2017-04-20T02:03:31.085Z,1018.90
2017-04-20T02:03:57.570Z,1019.05
2017-04-20T02:04:19.386Z,1019.03
2017-04-20T02:05:12.362Z,1018.93
2017-04-20T02:05:34.087Z,1019.09
2017-04-20T02:05:55.785Z,1019.12
2017-04-20T02:06:17.589Z,1019.19
2017-04-20T02:07:10.679Z,1018.89
2017-04-20T02:08:03.691Z,1019.02
2017-04-20T02:08:56.752Z,1018.99
2017-04-20T02:10:30.562Z,1019.13
2017-04-20T02:10:52.282Z,1019.25
2017-04-20T02:11:14.001Z,1019.18
2017-04-20T02:12:07.018Z,1019.09
2017-04-20T02:12:33.510Z,1018.87
2017-04-20T02:12:55.210Z,1018.90
2017-04-20T02:13:17.018Z,1019.00
2017-04-20T02:14:10.011Z,1019.08
2017-04-20T02:15:12.538Z,1019.01
2017-04-20T02:15:34.244Z,1019.22
2017-04-20T02:16:33.702Z,1018.97
2017-04-20T02:17:26.760Z,1019.19
2017-04-20T02:17:48.480Z,1019.21
2017-04-20T02:18:14.964Z,1019.10
2017-04-20T02:18:36.664Z,1019.19
2017-04-20T02:19:39.193Z,1018.91
2017-04-20T02:20:00.890Z,1018.93
2017-04-20T02:20:27.372Z,1019.32
2017-04-20T02:20:49.168Z,1019.17
2017-04-20T02:21:42.137Z,1019.16
2017-04-20T02:22:03.941Z,1019.16
2017-04-20T02:22:30.428Z,1019.11
2017-04-20T02:22:52.371Z,1019.20
2017-04-20T02:23:19.002Z,1019.32
2017-04-20T02:23:40.709Z,1019.14
2017-04-20T02:24:07.195Z,1019.08
2017-04-20T02:24:28.940Z,1019.07
2017-04-20T02:24:50.758Z,1019.14
2017-04-20T02:25:17.250Z,1019.08
2017-04-20T02:25:38.948Z,1019.20
2017-04-20T02:26:46.234Z,1019.34
2017-04-20T02:27:07.965Z,1019.17
2017-04-20T02:27:29.683Z,1019.24
2017-04-20T02:27:56.166Z,1019.33
2017-04-20T02:28:17.955Z,1019.30
2017-04-20T02:29:11.028Z,1019.18
2017-04-20T02:29:37.500Z,1018.93
2017-04-20T02:29:59.258Z,1019.22
2017-04-20T02:30:25.879Z,1019.26
2017-04-20T02:30:47.504Z,1019.03
2017-04-20T02:31:14.019Z,1018.97
2017-04-20T02:31:35.717Z,1019.03
2017-04-20T02:31:57.487Z,1019.00
2017-04-20T02:32:23.966Z,1018.98
2017-04-20T02:32:45.655Z,1019.05
2017-04-20T02:33:44.186Z,1019.09
2017-04-20T02:34:05.883Z,1019.16
2017-04-20T02:35:13.153Z,1019.11
2017-04-20T02:35:34.882Z,1019.25
2017-04-20T02:36:01.372Z,1018.99
2017-04-20T02:36:23.151Z,1019.14
2017-04-20T02:36:49.629Z,1018.88
2017-04-20T02:37:11.319Z,1019.03
2017-04-20T02:37:33.027Z,1019.01
2017-04-20T02:37:59.501Z,1019.17
2017-04-20T02:38:21.266Z,1019.25
2017-04-20T02:39:14.411Z,1019.12
2017-04-20T02:39:40.910Z,1018.98
2017-04-20T02:40:02.623Z,1019.00
2017-04-20T02:41:01.112Z,1019.11
2017-04-20T02:41:22.809Z,1019.23
2017-04-20T02:41:49.328Z,1019.09
2017-04-20T02:42:11.088Z,1019.16
2017-04-20T02:43:04.095Z,1019.09
2017-04-20T02:43:57.101Z,1019.07
2017-04-20T02:44:23.590Z,1019.19
2017-04-20T02:44:45.288Z,1019.08
2017-04-20T02:45:07.057Z,1019.09
2017-04-20T02:45:33.526Z,1019.13
2017-04-20T02:45:55.238Z,1019.05
2017-04-20T02:47:02.522Z,1019.10
2017-04-20T02:47:24.220Z,1019.19
2017-04-20T02:47:50.841Z,1019.13
2017-04-20T02:48:12.486Z,1018.99
2017-04-20T02:48:34.200Z,1019.13
2017-04-20T02:49:27.247Z,1019.17
2017-04-20T02:49:48.959Z,1019.21
2017-04-20T02:50:15.435Z,1019.24
2017-04-20T02:50:37.223Z,1019.26
2017-04-20T02:50:58.925Z,1019.16
2017-04-20T02:51:25.398Z,1019.11
2017-04-20T02:51:47.101Z,1019.03
2017-04-20T02:52:13.591Z,1019.11
2017-04-20T02:52:35.388Z,1019.15
2017-04-20T02:52:57.096Z,1019.03
2017-04-20T02:53:50.130Z,1019.06
2017-04-20T02:54:11.847Z,1019.04
2017-04-20T02:55:19.129Z,1019.05
2017-04-20T02:55:40.867Z,1019.09
2017-04-20T02:56:02.572Z,1019.19
2017-04-20T02:56:29.056Z,1019.18
2017-04-20T02:56:50.923Z,1019.21
2017-04-20T02:57:53.885Z,1019.27
2017-04-20T02:58:20.272Z,1019.08
2017-04-20T02:58:41.995Z,1019.25
2017-04-20T02:59:03.777Z,1019.20
2017-04-20T02:59:25.505Z,1019.09
2017-04-20T02:59:51.993Z,1019.24
2017-04-20T03:00:13.715Z,1019.34
2017-04-20T03:00:40.218Z,1019.20
2017-04-20T03:01:01.983Z,1019.11
2017-04-20T03:01:28.483Z,1019.25
2017-04-20T03:01:50.192Z,1019.17
2017-04-20T03:02:11.988Z,1019.11
2017-04-20T03:03:04.935Z,1019.25
2017-04-20T03:03:57.989Z,1019.21
2017-04-20T03:04:53.468Z,1019.27
2017-04-20T03:05:19.955Z,1019.33
2017-04-20T03:05:41.644Z,1019.15
2017-04-20T03:06:08.131Z,1019.07
2017-04-20T03:06:29.948Z,1019.14
2017-04-20T03:06:51.675Z,1019.31
2017-04-20T03:07:18.160Z,1019.13
2017-04-20T03:07:39.935Z,1019.43
2017-04-20T03:08:06.431Z,1019.39
2017-04-20T03:08:28.125Z,1019.31
2017-04-20T03:08:54.597Z,1019.30
2017-04-20T03:09:16.425Z,1019.17
2017-04-20T03:09:42.899Z,1019.06
2017-04-20T03:10:04.602Z,1019.40
2017-04-20T03:10:26.385Z,1019.25
2017-04-20T03:10:52.863Z,1019.21
2017-04-20T03:11:14.575Z,1019.15
2017-04-20T03:11:41.044Z,1019.09
2017-04-20T03:12:02.853Z,1019.08
2017-04-20T03:13:35.176Z,1019.25
2017-04-20T03:13:56.864Z,1019.24
2017-04-20T03:14:18.576Z,1019.09
2017-04-20T03:15:11.852Z,1019.18
2017-04-20T03:15:38.371Z,1019.24
2017-04-20T03:16:00.056Z,1019.31
2017-04-20T03:16:21.840Z,1019.27
2017-04-20T03:16:48.339Z,1019.16
2017-04-20T03:17:10.299Z,1019.20
2017-04-20T03:17:36.812Z,1019.27
2017-04-20T03:17:58.608Z,1019.27
2017-04-20T03:19:00.946Z,1019.16
2017-04-20T03:19:28.615Z,1019.10
2017-04-20T03:19:55.175Z,1019.27
2017-04-20T03:20:17.707Z,1019.24
2017-04-20T03:20:39.424Z,1019.25
2017-04-20T03:21:01.140Z,1019.26
2017-04-20T03:21:22.875Z,1019.22
2017-04-20T03:21:45.035Z,1019.24
2017-04-20T03:22:06.890Z,1019.36
2017-04-20T03:22:28.726Z,1019.28
2017-04-20T03:22:51.001Z,1019.33
2017-04-20T03:23:12.732Z,1019.31
2017-04-20T03:23:34.538Z,1019.31
2017-04-20T03:23:56.374Z,1019.22
2017-04-20T03:24:18.381Z,1019.17
2017-04-20T03:24:40.390Z,1019.26
2017-04-20T03:25:02.494Z,1019.23
2017-04-20T03:25:24.681Z,1019.32
2017-04-20T03:25:46.563Z,1019.35
2017-04-20T03:26:11.151Z,1019.38
2017-04-20T03:26:33.250Z,1019.34
2017-04-20T03:26:57.158Z,1019.47
2017-04-20T03:27:19.539Z,1019.30
2017-04-20T03:27:41.277Z,1019.39
2017-04-20T03:28:03.001Z,1019.36
2017-04-20T03:28:24.978Z,1019.40
2017-04-20T03:28:46.712Z,1019.30
2017-04-20T03:29:08.974Z,1019.25
2017-04-20T03:29:30.754Z,1019.36
2017-04-20T03:29:52.820Z,1019.54
2017-04-20T03:30:14.577Z,1019.59
2017-04-20T03:30:36.453Z,1019.49
2017-04-20T03:30:58.255Z,1019.31
2017-04-20T03:31:20.022Z,1019.41
2017-04-20T03:32:23.609Z,1019.45
2017-04-20T03:32:50.195Z,1019.29
2017-04-20T03:33:57.806Z,1019.57
2017-04-20T03:34:19.736Z,1019.46
2017-04-20T03:34:41.850Z,1019.61
2017-04-20T03:35:03.650Z,1019.42
2017-04-20T03:35:25.359Z,1019.52
2017-04-20T03:35:47.120Z,1019.41
2017-04-20T03:36:08.844Z,1019.34
2017-04-20T03:36:30.576Z,1019.51
2017-04-20T03:37:33.184Z,1019.41
2017-04-20T03:37:55.370Z,1019.43
2017-04-20T03:38:17.187Z,1019.36
2017-04-20T03:38:39.180Z,1019.52
2017-04-20T03:39:00.927Z,1019.48
2017-04-20T03:39:22.696Z,1019.26
2017-04-20T03:39:49.785Z,1019.39
2017-04-20T03:40:11.856Z,1019.37
2017-04-20T03:40:33.607Z,1019.33
2017-04-20T03:40:55.592Z,1019.43
2017-04-20T03:41:17.472Z,1019.42
2017-04-20T03:41:39.202Z,1019.53
2017-04-20T03:42:01.008Z,1019.39
2017-04-20T03:42:22.890Z,1019.36
2017-04-20T03:42:45.068Z,1019.31
2017-04-20T03:43:07.165Z,1019.28
2017-04-20T03:43:29.191Z,1019.52
2017-04-20T03:43:51.037Z,1019.30
2017-04-20T03:44:13.009Z,1019.47
2017-04-20T03:44:34.854Z,1019.52
2017-04-20T03:44:56.544Z,1019.43
2017-04-20T03:45:18.242Z,1019.56
2017-04-20T03:45:44.203Z,1019.37
2017-04-20T03:46:08.505Z,1019.43
2017-04-20T03:46:30.236Z,1019.52
2017-04-20T03:46:52.444Z,1019.55
2017-04-20T03:47:14.327Z,1019.34
2017-04-20T03:47:36.065Z,1019.36
2017-04-20T03:47:57.908Z,1019.53
2017-04-20T03:48:22.573Z,1019.39
2017-04-20T03:48:44.832Z,1019.20
2017-04-20T03:49:06.590Z,1019.55
2017-04-20T03:49:28.364Z,1019.35
2017-04-20T03:49:50.305Z,1019.28
2017-04-20T03:50:12.023Z,1019.33
2017-04-20T03:50:33.825Z,1019.37
2017-04-20T03:50:55.817Z,1019.35
2017-04-20T03:51:17.684Z,1019.37
2017-04-20T03:52:20.379Z,1019.42
2017-04-20T03:52:42.326Z,1019.38
2017-04-20T03:53:04.263Z,1019.33
2017-04-20T03:53:29.113Z,1019.41
2017-04-20T03:53:56.077Z,1019.45
2017-04-20T03:54:17.787Z,1019.25
2017-04-20T03:54:39.791Z,1019.24
2017-04-20T03:55:04.262Z,1019.45
2017-04-20T03:55:26.077Z,1019.23
2017-04-20T03:55:48.123Z,1019.40
2017-04-20T03:56:09.920Z,1019.45
2017-04-20T03:56:31.938Z,1019.32
2017-04-20T03:56:53.925Z,1019.39
2017-04-20T03:57:15.850Z,1019.32
2017-04-20T03:57:37.964Z,1019.34
2017-04-20T03:58:00.417Z,1019.48
2017-04-20T03:58:22.485Z,1019.32
2017-04-20T03:58:44.324Z,1019.30
2017-04-20T03:59:06.402Z,1019.34
2017-04-20T03:59:33.121Z,1019.37
2017-04-20T04:01:14.678Z,1019.47
2017-04-20T04:01:40.245Z,1019.46
2017-04-20T04:02:02.131Z,1019.38
2017-04-20T04:02:55.136Z,1019.53
2017-04-20T04:03:48.797Z,1019.62
2017-04-20T04:05:24.075Z,1019.65
2017-04-20T04:05:49.051Z,1019.55
2017-04-20T04:06:10.756Z,1019.36
2017-04-20T04:06:33.591Z,1019.44
2017-04-20T04:06:55.864Z,1019.43
2017-04-20T04:07:17.965Z,1019.49
2017-04-20T04:07:39.997Z,1019.23
2017-04-20T04:08:02.475Z,1019.37
2017-04-20T04:08:24.464Z,1019.37
2017-04-20T04:08:49.719Z,1019.37
2017-04-20T04:09:11.884Z,1019.23
2017-04-20T04:09:36.316Z,1019.35
2017-04-20T04:09:58.185Z,1019.40
2017-04-20T04:10:20.059Z,1019.36
2017-04-20T04:10:41.974Z,1019.50
2017-04-20T04:11:03.856Z,1019.56
2017-04-20T04:11:25.761Z,1019.26
2017-04-20T04:11:48.417Z,1019.38
2017-04-20T04:12:11.199Z,1019.38
2017-04-20T04:12:33.191Z,1019.27
2017-04-20T04:12:54.948Z,1019.40
2017-04-20T04:13:16.861Z,1019.52
2017-04-20T04:13:41.385Z,1019.37
2017-04-20T04:14:03.254Z,1019.36
2017-04-20T04:14:27.527Z,1019.37
2017-04-20T04:14:49.269Z,1019.38
2017-04-20T04:15:11.128Z,1019.50
2017-04-20T04:15:33.166Z,1019.54
2017-04-20T04:15:54.890Z,1019.48
2017-04-20T04:16:16.625Z,1019.56
2017-04-20T04:16:38.405Z,1019.33
2017-04-20T04:17:00.306Z,1019.37
2017-04-20T04:17:22.040Z,1019.43
2017-04-20T04:17:44.394Z,1019.42
2017-04-20T04:18:06.182Z,1019.54
2017-04-20T04:18:28.007Z,1019.46
2017-04-20T04:18:49.748Z,1019.37
2017-04-20T04:19:16.788Z,1019.47
2017-04-20T04:19:43.285Z,1019.49
2017-04-20T04:20:05.384Z,1019.64
2017-04-20T04:20:58.821Z,1019.36
2017-04-20T04:21:25.362Z,1019.44
2017-04-20T04:22:21.759Z,1019.43
2017-04-20T04:22:43.498Z,1019.50
2017-04-20T04:23:08.658Z,1019.41
2017-04-20T04:23:30.494Z,1019.35
2017-04-20T04:23:52.270Z,1019.55
2017-04-20T04:24:14.775Z,1019.43
2017-04-20T04:24:36.616Z,1019.50
2017-04-20T04:24:58.483Z,1019.67
2017-04-20T04:25:20.219Z,1019.62
2017-04-20T04:25:42.018Z,1019.54
2017-04-20T04:26:04.011Z,1019.53
2017-04-20T04:26:26.078Z,1019.45
2017-04-20T04:26:50.704Z,1019.44
2017-04-20T04:27:12.468Z,1019.33
2017-04-20T04:27:34.248Z,1019.48
2017-04-20T04:27:56.050Z,1019.71
2017-04-20T04:28:18.033Z,1019.51
2017-04-20T04:28:42.406Z,1019.48
2017-04-20T04:29:04.137Z,1019.51
2017-04-20T04:29:29.031Z,1019.51
2017-04-20T04:29:54.068Z,1019.71
2017-04-20T04:30:21.141Z,1019.38
2017-04-20T04:30:43.126Z,1019.46
2017-04-20T04:31:04.939Z,1019.62
2017-04-20T04:31:26.680Z,1019.45
2017-04-20T04:31:48.777Z,1019.48
2017-04-20T04:32:10.383Z,1019.52
2017-04-20T04:32:32.085Z,1019.48
2017-04-20T04:32:53.775Z,1019.59
2017-04-20T04:33:15.604Z,1019.40
2017-04-20T04:33:37.322Z,1019.51
2017-04-20T04:34:30.405Z,1019.50
2017-04-20T04:34:52.153Z,1019.57
2017-04-20T04:35:13.888Z,1019.63
2017-04-20T04:35:35.697Z,1019.54
2017-04-20T04:35:57.441Z,1019.55
2017-04-20T04:36:19.170Z,1019.67
2017-04-20T04:36:40.917Z,1019.69
2017-04-20T04:37:02.736Z,1019.49
2017-04-20T04:37:24.468Z,1019.55
2017-04-20T04:37:46.195Z,1019.59
2017-04-20T04:38:07.930Z,1019.56
2017-04-20T04:38:29.740Z,1019.79
2017-04-20T04:38:51.490Z,1019.96
2017-04-20T04:39:13.226Z,1020.28
2017-04-20T04:39:34.971Z,1019.80
2017-04-20T04:39:56.842Z,1019.64
2017-04-20T04:40:18.618Z,1019.61
2017-04-20T04:40:40.390Z,1019.41
2017-04-20T04:41:02.254Z,1019.92
2017-04-20T04:41:24.055Z,1019.80
2017-04-20T04:41:45.829Z,1019.62
2017-04-20T04:42:07.590Z,1019.41
2017-04-20T04:42:29.400Z,1019.44
2017-04-20T04:42:51.122Z,1019.57
2017-04-20T04:43:12.853Z,1019.61
2017-04-20T04:43:34.612Z,1019.67
2017-04-20T04:43:56.424Z,1019.67
2017-04-20T04:44:18.163Z,1019.75
2017-04-20T04:44:39.888Z,1019.61
2017-04-20T04:45:01.626Z,1019.76
2017-04-20T04:45:23.450Z,1019.84
2017-04-20T04:45:45.203Z,1019.74
2017-04-20T04:46:06.938Z,1019.52
2017-04-20T04:46:28.675Z,1020.03
2017-04-20T04:46:50.409Z,1019.70
2017-04-20T04:47:12.156Z,1019.49
2017-04-20T04:47:33.935Z,1019.65
2017-04-20T04:47:55.782Z,1019.64
2017-04-20T04:48:17.531Z,1019.70
2017-04-20T04:48:39.285Z,1019.58
2017-04-20T04:49:01.012Z,1019.59
2017-04-20T04:49:22.838Z,1019.74
2017-04-20T04:49:44.544Z,1019.60
2017-04-20T04:50:06.240Z,1019.78
2017-04-20T04:50:27.978Z,1019.79
2017-04-20T04:50:49.777Z,1019.77
2017-04-20T04:51:11.517Z,1019.67
2017-04-20T04:51:33.235Z,1019.70
2017-04-20T04:51:54.988Z,1019.79
2017-04-20T04:52:16.862Z,1019.80
2017-04-20T04:52:38.767Z,1019.74
2017-04-20T04:53:00.512Z,1019.77
2017-04-20T04:53:22.334Z,1019.66
2017-04-20T04:53:44.272Z,1019.73
2017-04-20T04:54:06.005Z,1019.88
2017-04-20T04:54:27.789Z,1019.89
2017-04-20T04:54:49.496Z,1019.73
2017-04-20T04:55:11.328Z,1019.82
2017-04-20T04:55:32.955Z,1019.72
2017-04-20T04:56:21.518Z,1019.77
2017-04-20T04:56:44.096Z,1019.95
2017-04-20T04:57:09.149Z,1019.62
2017-04-20T04:57:30.893Z,1019.82
2017-04-20T04:57:52.897Z,1019.88
2017-04-20T04:58:14.706Z,1019.64
2017-04-20T04:58:36.430Z,1019.75
2017-04-20T04:58:58.208Z,1019.70
2017-04-20T04:59:19.954Z,1019.73
2017-04-20T04:59:47.807Z,1019.97
2017-04-20T05:00:09.640Z,1019.65
2017-04-20T05:00:31.351Z,1020.02
2017-04-20T05:00:53.177Z,1019.75
2017-04-20T05:01:15.092Z,1019.64
2017-04-20T05:01:36.812Z,1019.79
2017-04-20T05:01:58.582Z,1019.67
2017-04-20T05:02:20.332Z,1019.67
2017-04-20T05:02:42.129Z,1019.62
2017-04-20T05:03:03.911Z,1019.69
2017-04-20T05:03:25.646Z,1019.81
2017-04-20T05:03:47.380Z,1019.47
2017-04-20T05:04:09.181Z,1019.71
2017-04-20T05:04:31.009Z,1019.75
2017-04-20T05:04:52.825Z,1019.58
2017-04-20T05:05:14.609Z,1019.73
2017-04-20T05:05:36.366Z,1019.69
2017-04-20T05:05:58.096Z,1019.82
2017-04-20T05:06:19.917Z,1019.59
2017-04-20T05:06:41.691Z,1019.66
2017-04-20T05:07:03.481Z,1019.80
2017-04-20T05:07:25.229Z,1019.91
2017-04-20T05:07:47.038Z,1019.93
2017-04-20T05:08:08.814Z,1019.65
2017-04-20T05:08:30.526Z,1019.58
2017-04-20T05:08:52.222Z,1019.87
2017-04-20T05:09:13.980Z,1019.76
2017-04-20T05:09:35.930Z,1019.71
2017-04-20T05:09:57.693Z,1019.99
2017-04-20T05:10:19.463Z,1019.76
2017-04-20T05:10:45.994Z,1019.80
2017-04-20T05:11:07.725Z,1019.69
2017-04-20T05:11:29.526Z,1019.69
2017-04-20T05:11:51.218Z,1019.78
2017-04-20T05:12:12.965Z,1019.67
2017-04-20T05:12:34.691Z,1019.70
2017-04-20T05:12:56.537Z,1019.65
2017-04-20T05:13:23.053Z,1019.64
2017-04-20T05:14:20.824Z,1019.67
2017-04-20T05:14:45.298Z,1019.78
2017-04-20T05:15:07.106Z,1019.66
2017-04-20T05:15:28.907Z,1019.80
2017-04-20T05:15:50.666Z,1019.57
2017-04-20T05:16:25.010Z,1019.72
2017-04-20T05:16:46.772Z,1019.62
2017-04-20T05:17:08.508Z,1019.66
2017-04-20T05:17:30.212Z,1019.78
2017-04-20T05:17:52.058Z,1019.72
2017-04-20T05:18:18.534Z,1019.73
2017-04-20T05:18:40.316Z,1019.69
2017-04-20T05:19:02.015Z,1019.72
2017-04-20T05:19:23.719Z,1019.81
2017-04-20T05:19:45.431Z,1019.78
2017-04-20T05:20:07.219Z,1019.76
2017-04-20T05:20:28.979Z,1019.67
2017-04-20T05:20:50.747Z,1019.73
2017-04-20T05:21:12.487Z,1019.58
2017-04-20T05:21:34.224Z,1019.55
2017-04-20T05:21:55.996Z,1019.61
2017-04-20T05:22:17.692Z,1019.88
2017-04-20T05:22:39.427Z,1019.57
2017-04-20T05:23:01.135Z,1019.99
2017-04-20T05:23:22.860Z,1020.15
2017-04-20T05:23:44.596Z,1019.90
2017-04-20T05:24:06.351Z,1019.88
2017-04-20T05:24:28.118Z,1019.81
2017-04-20T05:24:49.930Z,1019.74
2017-04-20T05:25:11.734Z,1019.48
2017-04-20T05:25:36.217Z,1019.62
2017-04-20T05:25:57.938Z,1019.59
2017-04-20T05:26:19.716Z,1019.65
2017-04-20T05:27:08.039Z,1019.78
2017-04-20T05:27:29.779Z,1019.99
2017-04-20T05:27:51.527Z,1019.71
2017-04-20T05:28:13.320Z,1019.66
2017-04-20T05:29:11.012Z,1019.60
2017-04-20T05:29:32.812Z,1019.73
2017-04-20T05:29:54.531Z,1019.64
2017-04-20T05:30:16.310Z,1019.68
2017-04-20T05:30:38.027Z,1019.63
2017-04-20T05:30:59.805Z,1019.78
2017-04-20T05:31:21.569Z,1019.68
2017-04-20T05:31:43.377Z,1019.72
2017-04-20T05:32:05.103Z,1019.75
2017-04-20T05:32:26.883Z,1019.63
2017-04-20T05:32:48.736Z,1019.53
2017-04-20T05:33:13.169Z,1019.65
2017-04-20T05:33:34.940Z,1019.83
2017-04-20T05:33:56.744Z,1019.90
2017-04-20T05:34:18.443Z,1019.82
2017-04-20T05:34:40.301Z,1019.63
2017-04-20T05:35:02.040Z,1019.77
2017-04-20T05:35:23.774Z,1019.65
2017-04-20T05:35:45.550Z,1019.70